sensor_id;sensor_type;location;lat;lon;timestamp;temperature;humidity
47384;DHT22;33129;52.232;5.192;2022-12-04T00:01:00;3.80;1.00
47384;DHT22;33129;52.232;5.192;2022-12-04T00:03:46;3.60;1.00
47384;DHT22;33129;52.232;5.192;2022-12-04T00:06:31;3.50;1.00
47384;DHT22;33129;52.232;5.192;2022-12-04T00:09:34;3.40;1.00
47384;DHT22;33129;52.232;5.192;2022-12-04T00:12:52;3.70;1.00
47384;DHT22;33129;52.232;5.192;2022-12-04T00:16:13;3.60;1.00
47384;DHT22;33129;52.232;5.192;2022-12-04T00:19:31;3.60;1.00
47384;DHT22;33129;52.232;5.192;2022-12-04T00:22:49;3.70;1.00
47384;DHT22;33129;52.232;5.192;2022-12-04T00:26:12;3.60;1.00
47384;DHT22;33129;52.232;5.192;2022-12-04T00:29:30;3.90;1.00
47384;DHT22;33129;52.232;5.192;2022-12-04T00:32:48;3.60;1.00
47384;DHT22;33129;52.232;5.192;2022-12-04T00:36:10;3.40;1.00
47384;DHT22;33129;52.232;5.192;2022-12-04T00:39:29;3.80;1.00
47384;DHT22;33129;52.232;5.192;2022-12-04T00:42:47;3.50;1.00
47384;DHT22;33129;52.232;5.192;2022-12-04T00:46:06;3.70;1.00
47384;DHT22;33129;52.232;5.192;2022-12-04T00:49:24;3.50;1.00
47384;DHT22;33129;52.232;5.192;2022-12-04T00:52:42;3.60;1.00
47384;DHT22;33129;52.232;5.192;2022-12-04T00:56:11;3.50;1.00
47384;DHT22;33129;52.232;5.192;2022-12-04T00:59:30;3.60;1.00
47384;DHT22;33129;52.232;5.192;2022-12-04T01:02:48;3.70;1.00
47384;DHT22;33129;52.232;5.192;2022-12-04T01:06:15;3.30;1.00
47384;DHT22;33129;52.232;5.192;2022-12-04T01:09:33;3.40;1.00
47384;DHT22;33129;52.232;5.192;2022-12-04T01:12:51;3.60;1.00
47384;DHT22;33129;52.232;5.192;2022-12-04T01:16:17;3.50;1.00
47384;DHT22;33129;52.232;5.192;2022-12-04T01:19:35;3.40;1.00
47384;DHT22;33129;52.232;5.192;2022-12-04T01:22:53;3.30;1.00
47384;DHT22;33129;52.232;5.192;2022-12-04T01:26:12;3.40;1.00
47384;DHT22;33129;52.232;5.192;2022-12-04T01:29:30;3.30;1.00
47384;DHT22;33129;52.232;5.192;2022-12-04T01:32:49;3.30;1.00
47384;DHT22;33129;52.232;5.192;2022-12-04T01:36:10;3.20;1.00
47384;DHT22;33129;52.232;5.192;2022-12-04T01:39:29;3.30;1.00
47384;DHT22;33129;52.232;5.192;2022-12-04T01:42:47;3.30;1.00
47384;DHT22;33129;52.232;5.192;2022-12-04T01:46:06;3.50;1.00
47384;DHT22;33129;52.232;5.192;2022-12-04T01:49:38;3.60;1.00
47384;DHT22;33129;52.232;5.192;2022-12-04T01:52:58;3.70;1.00
47384;DHT22;33129;52.232;5.192;2022-12-04T01:56:19;3.60;1.00
47384;DHT22;33129;52.232;5.192;2022-12-04T01:59:40;3.50;1.00
47384;DHT22;33129;52.232;5.192;2022-12-04T02:03:00;3.30;1.00
47384;DHT22;33129;52.232;5.192;2022-12-04T02:06:18;3.50;1.00
47384;DHT22;33129;52.232;5.192;2022-12-04T02:09:37;3.40;1.00
47384;DHT22;33129;52.232;5.192;2022-12-04T02:13:06;3.60;1.00
47384;DHT22;33129;52.232;5.192;2022-12-04T02:24:40;3.70;1.00
47384;DHT22;33129;52.232;5.192;2022-12-04T02:28:55;3.50;1.00
47384;DHT22;33129;52.232;5.192;2022-12-04T02:32:23;3.50;1.00
47384;DHT22;33129;52.232;5.192;2022-12-04T02:35:48;3.70;1.00
47384;DHT22;33129;52.232;5.192;2022-12-04T02:39:14;3.50;1.00
47384;DHT22;33129;52.232;5.192;2022-12-04T02:43:15;3.60;1.00
47384;DHT22;33129;52.232;5.192;2022-12-04T02:46:45;3.30;1.00
47384;DHT22;33129;52.232;5.192;2022-12-04T02:50:16;3.30;1.00
47384;DHT22;33129;52.232;5.192;2022-12-04T02:53:40;3.60;1.00
47384;DHT22;33129;52.232;5.192;2022-12-04T02:57:03;3.50;1.00
47384;DHT22;33129;52.232;5.192;2022-12-04T03:00:24;3.60;1.00
47384;DHT22;33129;52.232;5.192;2022-12-04T03:03:49;3.60;1.00
47384;DHT22;33129;52.232;5.192;2022-12-04T03:07:08;3.60;1.00
47384;DHT22;33129;52.232;5.192;2022-12-04T03:10:39;3.40;1.00
47384;DHT22;33129;52.232;5.192;2022-12-04T03:14:21;3.70;1.00
47384;DHT22;33129;52.232;5.192;2022-12-04T03:21:21;3.20;1.00
47384;DHT22;33129;52.232;5.192;2022-12-04T03:24:34;3.70;1.00
47384;DHT22;33129;52.232;5.192;2022-12-04T03:28:03;3.60;1.00
47384;DHT22;33129;52.232;5.192;2022-12-04T03:31:31;3.50;1.00
47384;DHT22;33129;52.232;5.192;2022-12-04T03:35:11;3.50;1.00
47384;DHT22;33129;52.232;5.192;2022-12-04T03:38:45;3.50;1.00
47384;DHT22;33129;52.232;5.192;2022-12-04T03:42:15;3.40;1.00
47384;DHT22;33129;52.232;5.192;2022-12-04T03:45:48;3.50;1.00
47384;DHT22;33129;52.232;5.192;2022-12-04T03:48:17;3.60;1.00
47384;DHT22;33129;52.232;5.192;2022-12-04T03:50:59;3.50;1.00
47384;DHT22;33129;52.232;5.192;2022-12-04T03:54:30;3.80;1.00
47384;DHT22;33129;52.232;5.192;2022-12-04T03:58:12;3.70;1.00
47384;DHT22;33129;52.232;5.192;2022-12-04T04:01:43;3.80;1.00
47384;DHT22;33129;52.232;5.192;2022-12-04T04:05:06;3.60;1.00
47384;DHT22;33129;52.232;5.192;2022-12-04T04:08:20;3.60;1.00
47384;DHT22;33129;52.232;5.192;2022-12-04T04:11:41;3.60;1.00
47384;DHT22;33129;52.232;5.192;2022-12-04T04:14:32;3.50;1.00
47384;DHT22;33129;52.232;5.192;2022-12-04T04:18:08;3.90;1.00
47384;DHT22;33129;52.232;5.192;2022-12-04T04:21:32;3.90;1.00
47384;DHT22;33129;52.232;5.192;2022-12-04T04:25:06;3.80;1.00
47384;DHT22;33129;52.232;5.192;2022-12-04T04:28:39;3.80;1.00
47384;DHT22;33129;52.232;5.192;2022-12-04T04:39:23;3.70;1.00
47384;DHT22;33129;52.232;5.192;2022-12-04T04:45:47;3.90;1.00
47384;DHT22;33129;52.232;5.192;2022-12-04T04:48:39;3.90;1.00
47384;DHT22;33129;52.232;5.192;2022-12-04T04:51:07;3.70;1.00
47384;DHT22;33129;52.232;5.192;2022-12-04T04:53:58;3.90;1.00
47384;DHT22;33129;52.232;5.192;2022-12-04T04:57:28;3.40;1.00
47384;DHT22;33129;52.232;5.192;2022-12-04T05:00:01;3.50;1.00
47384;DHT22;33129;52.232;5.192;2022-12-04T05:02:30;3.20;1.00
47384;DHT22;33129;52.232;5.192;2022-12-04T05:04:56;3.40;1.00
47384;DHT22;33129;52.232;5.192;2022-12-04T05:07:22;3.70;1.00
47384;DHT22;33129;52.232;5.192;2022-12-04T05:09:47;3.50;1.00
47384;DHT22;33129;52.232;5.192;2022-12-04T05:12:13;3.30;1.00
47384;DHT22;33129;52.232;5.192;2022-12-04T05:14:39;3.50;1.00
47384;DHT22;33129;52.232;5.192;2022-12-04T05:17:17;3.60;1.00
47384;DHT22;33129;52.232;5.192;2022-12-04T05:19:43;3.60;1.00
47384;DHT22;33129;52.232;5.192;2022-12-04T05:24:50;3.60;1.00
47384;DHT22;33129;52.232;5.192;2022-12-04T05:27:16;3.40;1.00
47384;DHT22;33129;52.232;5.192;2022-12-04T05:29:41;3.40;1.00
47384;DHT22;33129;52.232;5.192;2022-12-04T05:32:07;3.60;1.00
47384;DHT22;33129;52.232;5.192;2022-12-04T05:34:33;3.70;1.00
47384;DHT22;33129;52.232;5.192;2022-12-04T05:36:59;3.50;1.00
47384;DHT22;33129;52.232;5.192;2022-12-04T05:39:25;3.50;1.00
47384;DHT22;33129;52.232;5.192;2022-12-04T05:41:50;3.70;1.00
47384;DHT22;33129;52.232;5.192;2022-12-04T05:44:16;3.40;1.00
47384;DHT22;33129;52.232;5.192;2022-12-04T05:46:42;3.30;1.00
47384;DHT22;33129;52.232;5.192;2022-12-04T05:49:07;3.70;1.00
47384;DHT22;33129;52.232;5.192;2022-12-04T05:51:33;3.50;1.00
47384;DHT22;33129;52.232;5.192;2022-12-04T05:53:59;3.70;1.00
47384;DHT22;33129;52.232;5.192;2022-12-04T05:56:25;3.50;1.00
47384;DHT22;33129;52.232;5.192;2022-12-04T05:58:50;3.80;1.00
47384;DHT22;33129;52.232;5.192;2022-12-04T06:01:20;3.30;1.00
47384;DHT22;33129;52.232;5.192;2022-12-04T06:03:46;3.20;1.00
47384;DHT22;33129;52.232;5.192;2022-12-04T06:06:18;3.50;1.00
47384;DHT22;33129;52.232;5.192;2022-12-04T06:08:45;3.50;1.00
47384;DHT22;33129;52.232;5.192;2022-12-04T06:11:12;3.60;1.00
47384;DHT22;33129;52.232;5.192;2022-12-04T06:13:41;3.50;1.00
47384;DHT22;33129;52.232;5.192;2022-12-04T06:16:16;3.60;1.00
47384;DHT22;33129;52.232;5.192;2022-12-04T06:18:44;3.70;1.00
47384;DHT22;33129;52.232;5.192;2022-12-04T06:21:13;3.40;1.00
47384;DHT22;33129;52.232;5.192;2022-12-04T06:23:39;3.80;1.00
47384;DHT22;33129;52.232;5.192;2022-12-04T06:26:07;3.80;1.00
47384;DHT22;33129;52.232;5.192;2022-12-04T06:28:33;3.60;1.00
47384;DHT22;33129;52.232;5.192;2022-12-04T06:31:01;3.70;1.00
47384;DHT22;33129;52.232;5.192;2022-12-04T06:33:30;3.50;1.00
47384;DHT22;33129;52.232;5.192;2022-12-04T06:36:04;3.80;1.00
47384;DHT22;33129;52.232;5.192;2022-12-04T06:38:32;3.50;1.00
47384;DHT22;33129;52.232;5.192;2022-12-04T06:40:59;3.50;1.00
47384;DHT22;33129;52.232;5.192;2022-12-04T06:43:27;3.60;1.00
47384;DHT22;33129;52.232;5.192;2022-12-04T06:46:10;3.60;1.00
47384;DHT22;33129;52.232;5.192;2022-12-04T06:48:36;3.70;1.00
47384;DHT22;33129;52.232;5.192;2022-12-04T06:51:05;3.60;1.00
47384;DHT22;33129;52.232;5.192;2022-12-04T06:53:51;3.70;1.00
47384;DHT22;33129;52.232;5.192;2022-12-04T06:56:19;3.90;1.00
47384;DHT22;33129;52.232;5.192;2022-12-04T06:58:48;3.70;1.00
47384;DHT22;33129;52.232;5.192;2022-12-04T07:01:19;3.80;1.00
47384;DHT22;33129;52.232;5.192;2022-12-04T07:03:46;3.80;1.00
47384;DHT22;33129;52.232;5.192;2022-12-04T07:06:29;3.70;1.00
47384;DHT22;33129;52.232;5.192;2022-12-04T07:09:07;4.00;1.00
47384;DHT22;33129;52.232;5.192;2022-12-04T07:11:34;3.80;1.00
47384;DHT22;33129;52.232;5.192;2022-12-04T07:14:00;3.60;1.00
47384;DHT22;33129;52.232;5.192;2022-12-04T07:16:27;3.80;1.00
47384;DHT22;33129;52.232;5.192;2022-12-04T07:18:53;3.80;1.00
47384;DHT22;33129;52.232;5.192;2022-12-04T07:21:25;3.50;1.00
47384;DHT22;33129;52.232;5.192;2022-12-04T07:23:54;3.30;1.00
47384;DHT22;33129;52.232;5.192;2022-12-04T07:26:22;3.60;1.00
47384;DHT22;33129;52.232;5.192;2022-12-04T07:28:48;3.30;1.00
47384;DHT22;33129;52.232;5.192;2022-12-04T07:31:20;3.60;1.00
47384;DHT22;33129;52.232;5.192;2022-12-04T07:33:47;3.80;1.00
47384;DHT22;33129;52.232;5.192;2022-12-04T07:36:15;3.80;1.00
47384;DHT22;33129;52.232;5.192;2022-12-04T07:38:43;3.80;1.00
47384;DHT22;33129;52.232;5.192;2022-12-04T07:41:10;3.50;1.00
47384;DHT22;33129;52.232;5.192;2022-12-04T07:43:37;3.50;1.00
47384;DHT22;33129;52.232;5.192;2022-12-04T07:46:06;3.20;1.00
47384;DHT22;33129;52.232;5.192;2022-12-04T07:48:36;3.70;1.00
47384;DHT22;33129;52.232;5.192;2022-12-04T07:53:39;3.60;1.00
47384;DHT22;33129;52.232;5.192;2022-12-04T07:56:06;3.70;1.00
47384;DHT22;33129;52.232;5.192;2022-12-04T07:58:32;3.60;1.00
47384;DHT22;33129;52.232;5.192;2022-12-04T08:01:06;3.50;1.00
47384;DHT22;33129;52.232;5.192;2022-12-04T08:03:34;3.50;1.00
47384;DHT22;33129;52.232;5.192;2022-12-04T08:06:01;3.80;1.00
47384;DHT22;33129;52.232;5.192;2022-12-04T08:08:27;3.70;1.00
47384;DHT22;33129;52.232;5.192;2022-12-04T08:10:53;3.80;1.00
47384;DHT22;33129;52.232;5.192;2022-12-04T08:13:19;3.80;1.00
47384;DHT22;33129;52.232;5.192;2022-12-04T08:15:45;3.60;1.00
47384;DHT22;33129;52.232;5.192;2022-12-04T08:18:10;3.80;1.00
47384;DHT22;33129;52.232;5.192;2022-12-04T08:20:36;3.90;1.00
47384;DHT22;33129;52.232;5.192;2022-12-04T08:23:02;3.90;1.00
47384;DHT22;33129;52.232;5.192;2022-12-04T08:25:27;3.90;1.00
47384;DHT22;33129;52.232;5.192;2022-12-04T08:27:53;4.10;1.00
47384;DHT22;33129;52.232;5.192;2022-12-04T08:30:19;3.70;1.00
47384;DHT22;33129;52.232;5.192;2022-12-04T08:32:45;3.60;1.00
47384;DHT22;33129;52.232;5.192;2022-12-04T08:35:10;3.80;1.00
47384;DHT22;33129;52.232;5.192;2022-12-04T08:37:36;3.80;1.00
47384;DHT22;33129;52.232;5.192;2022-12-04T08:40:02;4.00;1.00
47384;DHT22;33129;52.232;5.192;2022-12-04T08:42:28;3.80;1.00
47384;DHT22;33129;52.232;5.192;2022-12-04T08:44:53;3.60;1.00
47384;DHT22;33129;52.232;5.192;2022-12-04T08:47:19;3.90;1.00
47384;DHT22;33129;52.232;5.192;2022-12-04T08:49:45;3.60;1.00
47384;DHT22;33129;52.232;5.192;2022-12-04T08:53:08;3.80;1.00
47384;DHT22;33129;52.232;5.192;2022-12-04T08:56:23;3.60;1.00
47384;DHT22;33129;52.232;5.192;2022-12-04T08:59:41;4.10;1.00
47384;DHT22;33129;52.232;5.192;2022-12-04T09:02:37;3.90;1.00
47384;DHT22;33129;52.232;5.192;2022-12-04T09:05:58;3.70;1.00
47384;DHT22;33129;52.232;5.192;2022-12-04T09:09:16;3.70;1.00
47384;DHT22;33129;52.232;5.192;2022-12-04T09:12:35;3.50;1.00
47384;DHT22;33129;52.232;5.192;2022-12-04T09:15:53;3.50;1.00
47384;DHT22;33129;52.232;5.192;2022-12-04T09:18:36;3.80;1.00
47384;DHT22;33129;52.232;5.192;2022-12-04T09:21:56;3.80;1.00
47384;DHT22;33129;52.232;5.192;2022-12-04T09:25:14;3.50;1.00
47384;DHT22;33129;52.232;5.192;2022-12-04T09:29:00;3.70;1.00
47384;DHT22;33129;52.232;5.192;2022-12-04T09:31:50;3.90;1.00
47384;DHT22;33129;52.232;5.192;2022-12-04T09:35:09;3.90;1.00
47384;DHT22;33129;52.232;5.192;2022-12-04T09:38:28;3.90;1.00
47384;DHT22;33129;52.232;5.192;2022-12-04T09:42:04;3.70;1.00
47384;DHT22;33129;52.232;5.192;2022-12-04T09:45:29;3.90;1.00
47384;DHT22;33129;52.232;5.192;2022-12-04T09:48:57;3.80;1.00
47384;DHT22;33129;52.232;5.192;2022-12-04T09:52:34;3.80;1.00
47384;DHT22;33129;52.232;5.192;2022-12-04T09:56:22;3.70;1.00
47384;DHT22;33129;52.232;5.192;2022-12-04T09:59:31;3.90;1.00
47384;DHT22;33129;52.232;5.192;2022-12-04T10:03:17;3.80;1.00
47384;DHT22;33129;52.232;5.192;2022-12-04T10:10:29;3.70;1.00
47384;DHT22;33129;52.232;5.192;2022-12-04T10:25:38;3.80;1.00
47384;DHT22;33129;52.232;5.192;2022-12-04T10:29:23;3.90;1.00
47384;DHT22;33129;52.232;5.192;2022-12-04T10:32:52;3.90;1.00
47384;DHT22;33129;52.232;5.192;2022-12-04T10:36:19;4.00;1.00
47384;DHT22;33129;52.232;5.192;2022-12-04T10:39:40;4.00;1.00
47384;DHT22;33129;52.232;5.192;2022-12-04T10:42:42;4.00;1.00
47384;DHT22;33129;52.232;5.192;2022-12-04T10:46:23;3.90;1.00
47384;DHT22;33129;52.232;5.192;2022-12-04T10:49:41;3.60;1.00
47384;DHT22;33129;52.232;5.192;2022-12-04T10:53:00;4.30;1.00
47384;DHT22;33129;52.232;5.192;2022-12-04T10:56:22;4.10;1.00
47384;DHT22;33129;52.232;5.192;2022-12-04T10:59:52;3.80;1.00
47384;DHT22;33129;52.232;5.192;2022-12-04T11:03:24;3.60;1.00
47384;DHT22;33129;52.232;5.192;2022-12-04T11:07:04;3.80;1.00
47384;DHT22;33129;52.232;5.192;2022-12-04T11:10:32;3.90;1.00
47384;DHT22;33129;52.232;5.192;2022-12-04T11:14:02;3.60;1.00
47384;DHT22;33129;52.232;5.192;2022-12-04T11:17:26;3.60;1.00
47384;DHT22;33129;52.232;5.192;2022-12-04T11:20:51;3.90;1.00
47384;DHT22;33129;52.232;5.192;2022-12-04T11:24:20;3.80;1.00
47384;DHT22;33129;52.232;5.192;2022-12-04T11:27:40;3.70;1.00
47384;DHT22;33129;52.232;5.192;2022-12-04T11:31:02;3.60;1.00
47384;DHT22;33129;52.232;5.192;2022-12-04T11:34:32;3.90;1.00
47384;DHT22;33129;52.232;5.192;2022-12-04T11:37:55;4.00;1.00
47384;DHT22;33129;52.232;5.192;2022-12-04T11:41:27;3.80;1.00
47384;DHT22;33129;52.232;5.192;2022-12-04T11:44:55;3.80;1.00
47384;DHT22;33129;52.232;5.192;2022-12-04T11:48:25;3.80;1.00
47384;DHT22;33129;52.232;5.192;2022-12-04T11:55:41;3.90;1.00
47384;DHT22;33129;52.232;5.192;2022-12-04T12:06:35;3.80;1.00
47384;DHT22;33129;52.232;5.192;2022-12-04T12:14:22;3.80;1.00
47384;DHT22;33129;52.232;5.192;2022-12-04T12:18:02;3.70;1.00
47384;DHT22;33129;52.232;5.192;2022-12-04T12:25:36;3.80;1.00
47384;DHT22;33129;52.232;5.192;2022-12-04T12:36:07;3.80;1.00
47384;DHT22;33129;52.232;5.192;2022-12-04T12:44:02;3.80;1.00
47384;DHT22;33129;52.232;5.192;2022-12-04T12:47:29;3.60;1.00
47384;DHT22;33129;52.232;5.192;2022-12-04T12:51:00;3.70;1.00
47384;DHT22;33129;52.232;5.192;2022-12-04T12:54:18;3.80;1.00
47384;DHT22;33129;52.232;5.192;2022-12-04T12:58:00;3.70;1.00
47384;DHT22;33129;52.232;5.192;2022-12-04T13:02:21;3.70;1.00
47384;DHT22;33129;52.232;5.192;2022-12-04T13:05:13;3.80;1.00
47384;DHT22;33129;52.232;5.192;2022-12-04T13:08:39;3.80;1.00
47384;DHT22;33129;52.232;5.192;2022-12-04T13:12:07;3.50;1.00
47384;DHT22;33129;52.232;5.192;2022-12-04T13:15:41;3.60;1.00
47384;DHT22;33129;52.232;5.192;2022-12-04T13:19:24;3.90;1.00
47384;DHT22;33129;52.232;5.192;2022-12-04T13:27:03;3.90;1.00
47384;DHT22;33129;52.232;5.192;2022-12-04T13:42:26;4.00;1.00
47384;DHT22;33129;52.232;5.192;2022-12-04T13:45:50;4.10;1.00
47384;DHT22;33129;52.232;5.192;2022-12-04T13:52:44;4.00;1.00
47384;DHT22;33129;52.232;5.192;2022-12-04T13:56:05;4.00;1.00
47384;DHT22;33129;52.232;5.192;2022-12-04T13:59:04;4.00;1.00
47384;DHT22;33129;52.232;5.192;2022-12-04T14:01:48;3.80;1.00
47384;DHT22;33129;52.232;5.192;2022-12-04T14:13:43;3.90;1.00
47384;DHT22;33129;52.232;5.192;2022-12-04T14:16:41;4.00;1.00
47384;DHT22;33129;52.232;5.192;2022-12-04T14:20:03;4.10;1.00
47384;DHT22;33129;52.232;5.192;2022-12-04T14:23:32;4.00;1.00
47384;DHT22;33129;52.232;5.192;2022-12-04T14:27:32;4.00;1.00
47384;DHT22;33129;52.232;5.192;2022-12-04T14:30:27;3.90;1.00
47384;DHT22;33129;52.232;5.192;2022-12-04T14:33:55;3.80;1.00
47384;DHT22;33129;52.232;5.192;2022-12-04T14:37:38;4.20;1.00
47384;DHT22;33129;52.232;5.192;2022-12-04T14:40:57;4.00;1.00
47384;DHT22;33129;52.232;5.192;2022-12-04T14:44:36;4.20;1.00
47384;DHT22;33129;52.232;5.192;2022-12-04T14:48:13;4.10;1.00
47384;DHT22;33129;52.232;5.192;2022-12-04T14:52:04;4.50;1.00
47384;DHT22;33129;52.232;5.192;2022-12-04T14:55:04;4.20;1.00
47384;DHT22;33129;52.232;5.192;2022-12-04T15:00:24;4.10;1.00
47384;DHT22;33129;52.232;5.192;2022-12-04T15:02:57;4.20;1.00
47384;DHT22;33129;52.232;5.192;2022-12-04T15:05:27;4.20;1.00
47384;DHT22;33129;52.232;5.192;2022-12-04T15:07:59;4.20;1.00
47384;DHT22;33129;52.232;5.192;2022-12-04T15:10:30;4.30;1.00
47384;DHT22;33129;52.232;5.192;2022-12-04T15:13:26;4.10;1.00
47384;DHT22;33129;52.232;5.192;2022-12-04T15:16:21;4.10;1.00
47384;DHT22;33129;52.232;5.192;2022-12-04T15:18:58;4.10;1.00
47384;DHT22;33129;52.232;5.192;2022-12-04T15:21:43;3.80;1.00
47384;DHT22;33129;52.232;5.192;2022-12-04T15:24:59;4.10;1.00
47384;DHT22;33129;52.232;5.192;2022-12-04T15:28:24;4.20;1.00
47384;DHT22;33129;52.232;5.192;2022-12-04T15:31:58;4.20;1.00
47384;DHT22;33129;52.232;5.192;2022-12-04T15:35:26;4.00;1.00
47384;DHT22;33129;52.232;5.192;2022-12-04T15:39:20;4.30;1.00
47384;DHT22;33129;52.232;5.192;2022-12-04T15:42:46;4.00;1.00
47384;DHT22;33129;52.232;5.192;2022-12-04T15:46:13;4.20;1.00
47384;DHT22;33129;52.232;5.192;2022-12-04T15:49:40;4.20;1.00
47384;DHT22;33129;52.232;5.192;2022-12-04T15:53:05;4.20;1.00
47384;DHT22;33129;52.232;5.192;2022-12-04T15:56:22;4.10;1.00
47384;DHT22;33129;52.232;5.192;2022-12-04T15:59:55;4.00;1.00
47384;DHT22;33129;52.232;5.192;2022-12-04T16:06:48;4.00;1.00
47384;DHT22;33129;52.232;5.192;2022-12-04T16:13:46;4.20;1.00
47384;DHT22;33129;52.232;5.192;2022-12-04T16:17:04;4.30;1.00
47384;DHT22;33129;52.232;5.192;2022-12-04T16:20:23;4.20;1.00
47384;DHT22;33129;52.232;5.192;2022-12-04T16:23:28;4.60;1.00
47384;DHT22;33129;52.232;5.192;2022-12-04T16:26:53;4.70;1.00
47384;DHT22;33129;52.232;5.192;2022-12-04T16:30:12;4.40;1.00
47384;DHT22;33129;52.232;5.192;2022-12-04T16:33:31;4.40;1.00
47384;DHT22;33129;52.232;5.192;2022-12-04T16:36:49;4.50;1.00
47384;DHT22;33129;52.232;5.192;2022-12-04T16:40:12;4.90;1.00
47384;DHT22;33129;52.232;5.192;2022-12-04T16:43:23;4.80;1.00
47384;DHT22;33129;52.232;5.192;2022-12-04T16:46:42;4.60;1.00
47384;DHT22;33129;52.232;5.192;2022-12-04T16:50:00;4.50;1.00
47384;DHT22;33129;52.232;5.192;2022-12-04T16:53:20;4.70;1.00
47384;DHT22;33129;52.232;5.192;2022-12-04T16:56:38;4.70;1.00
47384;DHT22;33129;52.232;5.192;2022-12-04T16:59:57;5.00;1.00
47384;DHT22;33129;52.232;5.192;2022-12-04T17:03:21;4.70;1.00
47384;DHT22;33129;52.232;5.192;2022-12-04T17:06:41;4.70;1.00
47384;DHT22;33129;52.232;5.192;2022-12-04T17:09:59;4.70;1.00
47384;DHT22;33129;52.232;5.192;2022-12-04T17:13:19;4.70;1.00
47384;DHT22;33129;52.232;5.192;2022-12-04T17:16:39;4.80;1.00
47384;DHT22;33129;52.232;5.192;2022-12-04T17:19:57;4.60;1.00
47384;DHT22;33129;52.232;5.192;2022-12-04T17:23:16;4.50;1.00
47384;DHT22;33129;52.232;5.192;2022-12-04T17:26:34;4.70;1.00
47384;DHT22;33129;52.232;5.192;2022-12-04T17:29:52;4.70;1.00
47384;DHT22;33129;52.232;5.192;2022-12-04T17:33:10;4.80;1.00
47384;DHT22;33129;52.232;5.192;2022-12-04T17:36:29;4.50;1.00
47384;DHT22;33129;52.232;5.192;2022-12-04T17:39:47;4.70;1.00
47384;DHT22;33129;52.232;5.192;2022-12-04T17:43:05;4.60;1.00
47384;DHT22;33129;52.232;5.192;2022-12-04T17:46:23;4.40;1.00
47384;DHT22;33129;52.232;5.192;2022-12-04T17:49:42;4.80;1.00
47384;DHT22;33129;52.232;5.192;2022-12-04T17:53:00;4.80;1.00
47384;DHT22;33129;52.232;5.192;2022-12-04T17:56:21;5.10;1.00
47384;DHT22;33129;52.232;5.192;2022-12-04T17:59:41;4.60;1.00
47384;DHT22;33129;52.232;5.192;2022-12-04T18:02:59;4.60;1.00
47384;DHT22;33129;52.232;5.192;2022-12-04T18:08:56;4.90;1.00
47384;DHT22;33129;52.232;5.192;2022-12-04T18:11:47;5.00;1.00
47384;DHT22;33129;52.232;5.192;2022-12-04T18:15:06;5.20;1.00
47384;DHT22;33129;52.232;5.192;2022-12-04T18:18:29;5.10;1.00
47384;DHT22;33129;52.232;5.192;2022-12-04T18:21:49;5.00;1.00
47384;DHT22;33129;52.232;5.192;2022-12-04T18:25:07;5.20;1.00
47384;DHT22;33129;52.232;5.192;2022-12-04T18:28:28;5.10;1.00
47384;DHT22;33129;52.232;5.192;2022-12-04T18:31:47;4.90;1.00
47384;DHT22;33129;52.232;5.192;2022-12-04T18:35:06;4.80;1.00
47384;DHT22;33129;52.232;5.192;2022-12-04T18:38:26;4.80;1.00
47384;DHT22;33129;52.232;5.192;2022-12-04T18:41:46;4.80;1.00
47384;DHT22;33129;52.232;5.192;2022-12-04T18:45:04;4.80;1.00
47384;DHT22;33129;52.232;5.192;2022-12-04T18:48:27;5.00;1.00
47384;DHT22;33129;52.232;5.192;2022-12-04T18:51:46;4.70;1.00
47384;DHT22;33129;52.232;5.192;2022-12-04T18:55:05;5.00;1.00
47384;DHT22;33129;52.232;5.192;2022-12-04T18:58:01;4.60;1.00
47384;DHT22;33129;52.232;5.192;2022-12-04T19:00:39;4.50;1.00
47384;DHT22;33129;52.232;5.192;2022-12-04T19:04:00;4.50;1.00
47384;DHT22;33129;52.232;5.192;2022-12-04T19:07:18;4.80;1.00
47384;DHT22;33129;52.232;5.192;2022-12-04T19:10:28;4.80;1.00
47384;DHT22;33129;52.232;5.192;2022-12-04T19:13:46;5.10;1.00
47384;DHT22;33129;52.232;5.192;2022-12-04T19:17:04;5.30;1.00
47384;DHT22;33129;52.232;5.192;2022-12-04T19:20:22;5.10;1.00
47384;DHT22;33129;52.232;5.192;2022-12-04T19:23:42;5.00;1.00
47384;DHT22;33129;52.232;5.192;2022-12-04T19:27:05;4.90;1.00
47384;DHT22;33129;52.232;5.192;2022-12-04T19:30:23;4.80;1.00
47384;DHT22;33129;52.232;5.192;2022-12-04T19:33:43;4.50;1.00
47384;DHT22;33129;52.232;5.192;2022-12-04T19:37:01;4.90;1.00
47384;DHT22;33129;52.232;5.192;2022-12-04T19:40:02;5.10;1.00
47384;DHT22;33129;52.232;5.192;2022-12-04T19:43:49;4.80;1.00
47384;DHT22;33129;52.232;5.192;2022-12-04T19:47:07;4.90;1.00
47384;DHT22;33129;52.232;5.192;2022-12-04T19:50:26;4.90;1.00
47384;DHT22;33129;52.232;5.192;2022-12-04T19:53:46;5.00;1.00
47384;DHT22;33129;52.232;5.192;2022-12-04T19:57:04;5.20;1.00
47384;DHT22;33129;52.232;5.192;2022-12-04T20:00:21;5.30;1.00
47384;DHT22;33129;52.232;5.192;2022-12-04T20:03:41;5.10;1.00
47384;DHT22;33129;52.232;5.192;2022-12-04T20:06:59;5.20;1.00
47384;DHT22;33129;52.232;5.192;2022-12-04T20:10:19;5.20;1.00
47384;DHT22;33129;52.232;5.192;2022-12-04T20:13:40;5.10;1.00
47384;DHT22;33129;52.232;5.192;2022-12-04T20:16:58;5.40;1.00
47384;DHT22;33129;52.232;5.192;2022-12-04T20:20:18;5.20;1.00
47384;DHT22;33129;52.232;5.192;2022-12-04T20:23:44;4.90;1.00
47384;DHT22;33129;52.232;5.192;2022-12-04T20:27:03;5.30;1.00
47384;DHT22;33129;52.232;5.192;2022-12-04T20:30:21;5.40;1.00
47384;DHT22;33129;52.232;5.192;2022-12-04T20:33:42;5.20;1.00
47384;DHT22;33129;52.232;5.192;2022-12-04T20:37:01;5.40;1.00
47384;DHT22;33129;52.232;5.192;2022-12-04T20:40:06;5.30;1.00
47384;DHT22;33129;52.232;5.192;2022-12-04T20:43:01;5.30;1.00
47384;DHT22;33129;52.232;5.192;2022-12-04T20:45:38;5.30;1.00
47384;DHT22;33129;52.232;5.192;2022-12-04T20:48:07;5.30;1.00
47384;DHT22;33129;52.232;5.192;2022-12-04T20:51:18;5.40;1.00
47384;DHT22;33129;52.232;5.192;2022-12-04T20:54:36;5.40;1.00
47384;DHT22;33129;52.232;5.192;2022-12-04T20:57:54;5.40;1.00
47384;DHT22;33129;52.232;5.192;2022-12-04T21:01:15;5.40;1.00
47384;DHT22;33129;52.232;5.192;2022-12-04T21:04:35;5.60;1.00
47384;DHT22;33129;52.232;5.192;2022-12-04T21:07:54;5.40;1.00
47384;DHT22;33129;52.232;5.192;2022-12-04T21:11:30;5.40;1.00
47384;DHT22;33129;52.232;5.192;2022-12-04T21:15:07;5.20;1.00
47384;DHT22;33129;52.232;5.192;2022-12-04T21:18:25;5.40;1.00
47384;DHT22;33129;52.232;5.192;2022-12-04T21:21:32;5.50;1.00
47384;DHT22;33129;52.232;5.192;2022-12-04T21:24:50;5.60;1.00
47384;DHT22;33129;52.232;5.192;2022-12-04T21:27:55;5.80;1.00
47384;DHT22;33129;52.232;5.192;2022-12-04T21:31:07;5.80;1.00
47384;DHT22;33129;52.232;5.192;2022-12-04T21:34:26;5.80;1.00
47384;DHT22;33129;52.232;5.192;2022-12-04T21:37:44;5.70;1.00
47384;DHT22;33129;52.232;5.192;2022-12-04T21:41:05;5.60;1.00
47384;DHT22;33129;52.232;5.192;2022-12-04T21:44:42;5.80;1.00
47384;DHT22;33129;52.232;5.192;2022-12-04T21:48:00;5.60;1.00
47384;DHT22;33129;52.232;5.192;2022-12-04T21:51:14;5.70;1.00
47384;DHT22;33129;52.232;5.192;2022-12-04T21:54:32;5.30;1.00
47384;DHT22;33129;52.232;5.192;2022-12-04T21:57:18;5.70;1.00
47384;DHT22;33129;52.232;5.192;2022-12-04T21:59:45;5.70;1.00
47384;DHT22;33129;52.232;5.192;2022-12-04T22:02:12;5.60;1.00
47384;DHT22;33129;52.232;5.192;2022-12-04T22:04:39;5.40;1.00
47384;DHT22;33129;52.232;5.192;2022-12-04T22:07:06;5.60;1.00
47384;DHT22;33129;52.232;5.192;2022-12-04T22:09:32;5.60;1.00
47384;DHT22;33129;52.232;5.192;2022-12-04T22:12:04;5.50;1.00